Terminal Aerodrome Forecast
Issued by NWS Caribou, ME

Current Version | Previous Version | Text Only | Print | Product List | Glossary On
Versions: 1 2 3 4 5 6 7 8 9 10 11 12 13 14 15 16 17
000
FTUS41 KCAR 161733
TAFBGR
TAF
KBGR 161733Z 1618/1718 22009KT P6SM SCT110 BKN250
     FM170300 26006KT P6SM SCT250
     FM171300 33005KT P6SM SKC=

USA.gov is the U.S. government's official web portal to all federal, state and local government web resources and services.